sensor_id;sensor_type;location;lat;lon;timestamp;pressure;altitude;pressure_sealevel;temperature;humidity
39793;BME280;26080;42.264;24.536;2022-11-20T00:02:24;98709.28;;;11.94;100.00
39793;BME280;26080;42.264;24.536;2022-11-20T00:04:49;98715.06;;;11.99;100.00
39793;BME280;26080;42.264;24.536;2022-11-20T00:07:14;98708.31;;;12.09;100.00
39793;BME280;26080;42.264;24.536;2022-11-20T00:09:40;98715.03;;;12.13;100.00
39793;BME280;26080;42.264;24.536;2022-11-20T00:12:05;98725.53;;;12.13;100.00
39793;BME280;26080;42.264;24.536;2022-11-20T00:14:31;98731.00;;;12.10;100.00
39793;BME280;26080;42.264;24.536;2022-11-20T00:16:56;98707.78;;;12.31;100.00
39793;BME280;26080;42.264;24.536;2022-11-20T00:19:22;98747.38;;;12.14;100.00
39793;BME280;26080;42.264;24.536;2022-11-20T00:21:47;98725.38;;;12.02;100.00
39793;BME280;26080;42.264;24.536;2022-11-20T00:24:13;98730.16;;;12.10;100.00
39793;BME280;26080;42.264;24.536;2022-11-20T00:26:38;98734.56;;;11.95;100.00
39793;BME280;26080;42.264;24.536;2022-11-20T00:29:03;98713.50;;;11.82;100.00
39793;BME280;26080;42.264;24.536;2022-11-20T00:31:30;98720.00;;;12.18;100.00
39793;BME280;26080;42.264;24.536;2022-11-20T00:33:55;98708.59;;;12.05;100.00
39793;BME280;26080;42.264;24.536;2022-11-20T00:36:24;98728.19;;;11.99;100.00
39793;BME280;26080;42.264;24.536;2022-11-20T00:38:54;98725.75;;;11.96;100.00
39793;BME280;26080;42.264;24.536;2022-11-20T00:41:20;98722.66;;;11.90;100.00
39793;BME280;26080;42.264;24.536;2022-11-20T00:43:46;98696.41;;;11.61;100.00
39793;BME280;26080;42.264;24.536;2022-11-20T00:46:14;98709.31;;;11.78;100.00
39793;BME280;26080;42.264;24.536;2022-11-20T00:48:40;98710.22;;;11.79;100.00
39793;BME280;26080;42.264;24.536;2022-11-20T00:51:05;98704.97;;;11.79;100.00
39793;BME280;26080;42.264;24.536;2022-11-20T00:53:31;98706.88;;;11.75;100.00
39793;BME280;26080;42.264;24.536;2022-11-20T00:56:01;98712.03;;;11.77;100.00
39793;BME280;26080;42.264;24.536;2022-11-20T00:58:32;98707.63;;;11.77;100.00
39793;BME280;26080;42.264;24.536;2022-11-20T01:01:13;98725.16;;;12.05;100.00
39793;BME280;26080;42.264;24.536;2022-11-20T01:03:41;98705.31;;;12.01;100.00
39793;BME280;26080;42.264;24.536;2022-11-20T01:06:11;98706.28;;;11.86;100.00
39793;BME280;26080;42.264;24.536;2022-11-20T01:08:37;98699.34;;;11.85;100.00
39793;BME280;26080;42.264;24.536;2022-11-20T01:11:18;98697.09;;;11.93;100.00
39793;BME280;26080;42.264;24.536;2022-11-20T01:13:46;98703.34;;;11.91;100.00
39793;BME280;26080;42.264;24.536;2022-11-20T01:16:13;98689.13;;;11.95;100.00
39793;BME280;26080;42.264;24.536;2022-11-20T01:18:40;98690.53;;;11.86;100.00
39793;BME280;26080;42.264;24.536;2022-11-20T01:21:18;98687.13;;;11.55;100.00
39793;BME280;26080;42.264;24.536;2022-11-20T01:23:44;98655.28;;;11.47;100.00
39793;BME280;26080;42.264;24.536;2022-11-20T01:26:13;98670.28;;;11.60;100.00
39793;BME280;26080;42.264;24.536;2022-11-20T01:28:39;98664.47;;;11.54;100.00
39793;BME280;26080;42.264;24.536;2022-11-20T01:31:19;98664.28;;;11.57;100.00
39793;BME280;26080;42.264;24.536;2022-11-20T01:33:49;98662.03;;;11.66;100.00
39793;BME280;26080;42.264;24.536;2022-11-20T01:36:16;98649.00;;;11.64;100.00
39793;BME280;26080;42.264;24.536;2022-11-20T01:38:42;98647.06;;;11.53;100.00
39793;BME280;26080;42.264;24.536;2022-11-20T01:41:08;98640.13;;;11.52;100.00
39793;BME280;26080;42.264;24.536;2022-11-20T01:43:34;98642.47;;;11.43;100.00
39793;BME280;26080;42.264;24.536;2022-11-20T01:48:59;98627.03;;;11.38;100.00
39793;BME280;26080;42.264;24.536;2022-11-20T01:51:35;98616.53;;;11.38;100.00
39793;BME280;26080;42.264;24.536;2022-11-20T01:54:06;98619.63;;;11.45;100.00
39793;BME280;26080;42.264;24.536;2022-11-20T01:56:37;98633.75;;;11.28;100.00
39793;BME280;26080;42.264;24.536;2022-11-20T01:59:05;98633.38;;;11.20;100.00
39793;BME280;26080;42.264;24.536;2022-11-20T02:01:33;98639.09;;;11.26;100.00
39793;BME280;26080;42.264;24.536;2022-11-20T02:03:59;98637.66;;;11.07;100.00
39793;BME280;26080;42.264;24.536;2022-11-20T02:06:35;98634.09;;;11.08;100.00
39793;BME280;26080;42.264;24.536;2022-11-20T02:09:01;98638.38;;;10.94;100.00
39793;BME280;26080;42.264;24.536;2022-11-20T02:11:27;98643.19;;;11.16;100.00
39793;BME280;26080;42.264;24.536;2022-11-20T02:13:53;98595.72;;;11.07;100.00
39793;BME280;26080;42.264;24.536;2022-11-20T02:16:22;98622.25;;;11.16;100.00
39793;BME280;26080;42.264;24.536;2022-11-20T02:18:49;98610.53;;;11.22;100.00
39793;BME280;26080;42.264;24.536;2022-11-20T02:24:04;98655.28;;;11.19;100.00
39793;BME280;26080;42.264;24.536;2022-11-20T02:29:19;98635.25;;;11.46;100.00
39793;BME280;26080;42.264;24.536;2022-11-20T02:31:48;98641.25;;;11.34;100.00
39793;BME280;26080;42.264;24.536;2022-11-20T02:34:13;98637.13;;;11.30;100.00
39793;BME280;26080;42.264;24.536;2022-11-20T02:36:41;98620.34;;;11.47;100.00
39793;BME280;26080;42.264;24.536;2022-11-20T02:39:08;98611.63;;;11.61;100.00
39793;BME280;26080;42.264;24.536;2022-11-20T02:41:36;98635.03;;;11.78;100.00
39793;BME280;26080;42.264;24.536;2022-11-20T02:44:03;98633.19;;;11.94;100.00
39793;BME280;26080;42.264;24.536;2022-11-20T02:46:29;98609.66;;;11.93;100.00
39793;BME280;26080;42.264;24.536;2022-11-20T02:48:55;98623.66;;;12.06;100.00
39793;BME280;26080;42.264;24.536;2022-11-20T02:51:21;98639.50;;;12.04;100.00
39793;BME280;26080;42.264;24.536;2022-11-20T02:53:46;98630.53;;;12.08;100.00
39793;BME280;26080;42.264;24.536;2022-11-20T02:56:12;98622.81;;;12.05;100.00
39793;BME280;26080;42.264;24.536;2022-11-20T02:58:37;98633.13;;;12.08;100.00
39793;BME280;26080;42.264;24.536;2022-11-20T03:01:03;98631.41;;;11.95;100.00
39793;BME280;26080;42.264;24.536;2022-11-20T03:03:29;98629.88;;;11.91;100.00
39793;BME280;26080;42.264;24.536;2022-11-20T03:05:54;98616.09;;;12.01;100.00
39793;BME280;26080;42.264;24.536;2022-11-20T03:08:20;98617.09;;;12.13;100.00
39793;BME280;26080;42.264;24.536;2022-11-20T03:10:45;98617.56;;;12.05;100.00
39793;BME280;26080;42.264;24.536;2022-11-20T03:13:11;98624.91;;;12.00;100.00
39793;BME280;26080;42.264;24.536;2022-11-20T03:15:37;98618.16;;;11.96;100.00
39793;BME280;26080;42.264;24.536;2022-11-20T03:18:03;98597.91;;;11.98;100.00
39793;BME280;26080;42.264;24.536;2022-11-20T03:20:28;98601.84;;;11.91;100.00
39793;BME280;26080;42.264;24.536;2022-11-20T03:22:54;98602.91;;;11.89;100.00
39793;BME280;26080;42.264;24.536;2022-11-20T03:25:20;98596.25;;;11.97;100.00
39793;BME280;26080;42.264;24.536;2022-11-20T03:27:46;98618.16;;;11.96;100.00
39793;BME280;26080;42.264;24.536;2022-11-20T03:30:11;98610.53;;;11.79;100.00
39793;BME280;26080;42.264;24.536;2022-11-20T03:32:37;98627.56;;;11.86;100.00
39793;BME280;26080;42.264;24.536;2022-11-20T03:35:03;98622.50;;;11.83;100.00
39793;BME280;26080;42.264;24.536;2022-11-20T03:37:28;98641.06;;;11.94;100.00
39793;BME280;26080;42.264;24.536;2022-11-20T03:39:54;98640.78;;;11.84;100.00
39793;BME280;26080;42.264;24.536;2022-11-20T03:42:19;98639.59;;;12.03;100.00
39793;BME280;26080;42.264;24.536;2022-11-20T03:45:04;98639.72;;;12.01;100.00
39793;BME280;26080;42.264;24.536;2022-11-20T03:47:29;98635.31;;;12.02;100.00
39793;BME280;26080;42.264;24.536;2022-11-20T03:49:55;98636.34;;;11.99;100.00
39793;BME280;26080;42.264;24.536;2022-11-20T03:52:20;98643.63;;;12.08;100.00
39793;BME280;26080;42.264;24.536;2022-11-20T03:54:45;98656.91;;;12.20;100.00
39793;BME280;26080;42.264;24.536;2022-11-20T03:57:11;98647.69;;;12.27;100.00
39793;BME280;26080;42.264;24.536;2022-11-20T03:59:36;98649.19;;;12.31;100.00
39793;BME280;26080;42.264;24.536;2022-11-20T04:02:02;98652.16;;;12.39;100.00
39793;BME280;26080;42.264;24.536;2022-11-20T04:04:28;98657.88;;;12.58;100.00
39793;BME280;26080;42.264;24.536;2022-11-20T04:06:53;98654.91;;;12.77;100.00
39793;BME280;26080;42.264;24.536;2022-11-20T04:09:18;98655.25;;;12.98;100.00
39793;BME280;26080;42.264;24.536;2022-11-20T04:11:44;98654.13;;;13.02;100.00
39793;BME280;26080;42.264;24.536;2022-11-20T04:14:16;98653.56;;;12.97;100.00
39793;BME280;26080;42.264;24.536;2022-11-20T04:16:42;98638.56;;;13.24;100.00
39793;BME280;26080;42.264;24.536;2022-11-20T04:19:13;98639.00;;;13.44;100.00
39793;BME280;26080;42.264;24.536;2022-11-20T04:21:38;98637.94;;;13.46;100.00
39793;BME280;26080;42.264;24.536;2022-11-20T04:24:05;98643.09;;;13.60;100.00
39793;BME280;26080;42.264;24.536;2022-11-20T04:26:31;98634.22;;;13.74;100.00
39793;BME280;26080;42.264;24.536;2022-11-20T04:28:57;98635.69;;;13.78;100.00
39793;BME280;26080;42.264;24.536;2022-11-20T04:31:25;98657.56;;;13.79;100.00
39793;BME280;26080;42.264;24.536;2022-11-20T04:33:52;98640.25;;;13.63;100.00
39793;BME280;26080;42.264;24.536;2022-11-20T04:36:27;98617.84;;;13.45;100.00
39793;BME280;26080;42.264;24.536;2022-11-20T04:38:55;98640.59;;;13.46;100.00
39793;BME280;26080;42.264;24.536;2022-11-20T04:41:22;98635.94;;;13.37;100.00
39793;BME280;26080;42.264;24.536;2022-11-20T04:43:49;98616.44;;;13.14;100.00
39793;BME280;26080;42.264;24.536;2022-11-20T04:46:16;98636.44;;;13.04;100.00
39793;BME280;26080;42.264;24.536;2022-11-20T04:48:41;98630.03;;;13.08;100.00
39793;BME280;26080;42.264;24.536;2022-11-20T04:51:07;98620.97;;;13.12;100.00
39793;BME280;26080;42.264;24.536;2022-11-20T04:53:32;98617.94;;;13.05;100.00
39793;BME280;26080;42.264;24.536;2022-11-20T04:56:01;98616.38;;;13.03;100.00
39793;BME280;26080;42.264;24.536;2022-11-20T04:58:27;98627.88;;;12.88;100.00
39793;BME280;26080;42.264;24.536;2022-11-20T05:00:53;98623.16;;;12.80;100.00
39793;BME280;26080;42.264;24.536;2022-11-20T05:03:18;98623.25;;;12.66;100.00
39793;BME280;26080;42.264;24.536;2022-11-20T05:05:44;98613.72;;;12.78;100.00
39793;BME280;26080;42.264;24.536;2022-11-20T05:08:09;98613.06;;;12.74;100.00
39793;BME280;26080;42.264;24.536;2022-11-20T05:10:35;98620.00;;;12.62;100.00
39793;BME280;26080;42.264;24.536;2022-11-20T05:13:00;98635.25;;;12.43;100.00
39793;BME280;26080;42.264;24.536;2022-11-20T05:15:25;98631.16;;;12.39;100.00
39793;BME280;26080;42.264;24.536;2022-11-20T05:17:52;98638.50;;;12.34;100.00
39793;BME280;26080;42.264;24.536;2022-11-20T05:20:18;98627.47;;;12.14;100.00
39793;BME280;26080;42.264;24.536;2022-11-20T05:22:44;98639.47;;;12.19;100.00
39793;BME280;26080;42.264;24.536;2022-11-20T05:25:12;98630.00;;;12.16;100.00
39793;BME280;26080;42.264;24.536;2022-11-20T05:27:37;98623.59;;;12.07;100.00
39793;BME280;26080;42.264;24.536;2022-11-20T05:30:04;98621.66;;;12.24;100.00
39793;BME280;26080;42.264;24.536;2022-11-20T05:32:30;98635.41;;;12.00;100.00
39793;BME280;26080;42.264;24.536;2022-11-20T05:34:55;98629.34;;;11.71;100.00
39793;BME280;26080;42.264;24.536;2022-11-20T05:37:20;98623.63;;;11.93;100.00
39793;BME280;26080;42.264;24.536;2022-11-20T05:39:46;98629.09;;;12.03;100.00
39793;BME280;26080;42.264;24.536;2022-11-20T05:42:11;98632.03;;;11.98;100.00
39793;BME280;26080;42.264;24.536;2022-11-20T05:44:55;98638.22;;;11.97;100.00
39793;BME280;26080;42.264;24.536;2022-11-20T05:47:20;98629.78;;;12.06;100.00
39793;BME280;26080;42.264;24.536;2022-11-20T05:49:45;98636.75;;;12.20;100.00
39793;BME280;26080;42.264;24.536;2022-11-20T05:52:11;98640.28;;;12.06;100.00
39793;BME280;26080;42.264;24.536;2022-11-20T05:54:36;98644.63;;;11.93;100.00
39793;BME280;26080;42.264;24.536;2022-11-20T05:57:02;98648.28;;;12.18;100.00
39793;BME280;26080;42.264;24.536;2022-11-20T05:59:27;98643.53;;;12.37;100.00
39793;BME280;26080;42.264;24.536;2022-11-20T06:01:53;98642.59;;;12.38;100.00
39793;BME280;26080;42.264;24.536;2022-11-20T06:04:18;98631.25;;;12.37;100.00
39793;BME280;26080;42.264;24.536;2022-11-20T06:06:44;98641.03;;;12.35;100.00
39793;BME280;26080;42.264;24.536;2022-11-20T06:09:09;98644.19;;;12.40;100.00
39793;BME280;26080;42.264;24.536;2022-11-20T06:11:35;98641.91;;;12.49;100.00
39793;BME280;26080;42.264;24.536;2022-11-20T06:14:00;98647.22;;;12.47;100.00
39793;BME280;26080;42.264;24.536;2022-11-20T06:16:25;98663.41;;;12.41;100.00
39793;BME280;26080;42.264;24.536;2022-11-20T06:18:51;98657.25;;;12.28;100.00
39793;BME280;26080;42.264;24.536;2022-11-20T06:21:19;98672.75;;;12.45;100.00
39793;BME280;26080;42.264;24.536;2022-11-20T06:23:45;98673.53;;;12.33;100.00
39793;BME280;26080;42.264;24.536;2022-11-20T06:26:14;98683.25;;;12.45;100.00
39793;BME280;26080;42.264;24.536;2022-11-20T06:28:40;98689.81;;;12.52;100.00
39793;BME280;26080;42.264;24.536;2022-11-20T06:31:06;98688.63;;;12.43;100.00
39793;BME280;26080;42.264;24.536;2022-11-20T06:33:32;98687.03;;;12.41;100.00
39793;BME280;26080;42.264;24.536;2022-11-20T06:35:59;98694.03;;;12.55;100.00
39793;BME280;26080;42.264;24.536;2022-11-20T06:38:26;98698.44;;;12.54;100.00
39793;BME280;26080;42.264;24.536;2022-11-20T06:40:52;98700.66;;;12.60;100.00
39793;BME280;26080;42.264;24.536;2022-11-20T06:43:18;98693.13;;;12.68;100.00
39793;BME280;26080;42.264;24.536;2022-11-20T06:45:43;98703.53;;;12.43;100.00
39793;BME280;26080;42.264;24.536;2022-11-20T06:48:09;98695.44;;;12.46;100.00
39793;BME280;26080;42.264;24.536;2022-11-20T06:50:36;98701.00;;;12.68;100.00
39793;BME280;26080;42.264;24.536;2022-11-20T06:53:02;98700.81;;;12.71;100.00
39793;BME280;26080;42.264;24.536;2022-11-20T06:55:29;98701.00;;;12.68;100.00
39793;BME280;26080;42.264;24.536;2022-11-20T06:57:54;98697.97;;;12.74;100.00
39793;BME280;26080;42.264;24.536;2022-11-20T07:00:20;98685.69;;;12.88;100.00
39793;BME280;26080;42.264;24.536;2022-11-20T07:02:45;98681.13;;;13.04;100.00
39793;BME280;26080;42.264;24.536;2022-11-20T07:05:10;98692.91;;;13.11;100.00
39793;BME280;26080;42.264;24.536;2022-11-20T07:07:36;98693.41;;;13.30;100.00
39793;BME280;26080;42.264;24.536;2022-11-20T07:10:01;98697.78;;;13.43;100.00
39793;BME280;26080;42.264;24.536;2022-11-20T07:12:27;98702.22;;;13.55;100.00
39793;BME280;26080;42.264;24.536;2022-11-20T07:14:52;98699.69;;;13.53;100.00
39793;BME280;26080;42.264;24.536;2022-11-20T07:17:18;98692.47;;;13.57;100.00
39793;BME280;26080;42.264;24.536;2022-11-20T07:19:43;98694.44;;;13.53;100.00
39793;BME280;26080;42.264;24.536;2022-11-20T07:22:08;98657.22;;;13.34;100.00
39793;BME280;26080;42.264;24.536;2022-11-20T07:24:34;98697.78;;;13.68;100.00
39793;BME280;26080;42.264;24.536;2022-11-20T07:27:00;98703.16;;;13.79;100.00
39793;BME280;26080;42.264;24.536;2022-11-20T07:29:25;98669.50;;;13.59;100.00
39793;BME280;26080;42.264;24.536;2022-11-20T07:31:51;98711.38;;;13.87;100.00
39793;BME280;26080;42.264;24.536;2022-11-20T07:34:16;98712.00;;;13.91;100.00
39793;BME280;26080;42.264;24.536;2022-11-20T07:36:41;98711.25;;;14.02;100.00
39793;BME280;26080;42.264;24.536;2022-11-20T07:39:07;98705.31;;;14.11;100.00
39793;BME280;26080;42.264;24.536;2022-11-20T07:41:32;98704.31;;;14.24;100.00
39793;BME280;26080;42.264;24.536;2022-11-20T07:43:58;98706.09;;;14.24;100.00
39793;BME280;26080;42.264;24.536;2022-11-20T07:46:23;98708.75;;;14.24;100.00
39793;BME280;26080;42.264;24.536;2022-11-20T07:48:49;98687.97;;;14.32;100.00
39793;BME280;26080;42.264;24.536;2022-11-20T07:51:14;98689.66;;;14.46;100.00
39793;BME280;26080;42.264;24.536;2022-11-20T07:53:40;98702.41;;;14.39;100.00
39793;BME280;26080;42.264;24.536;2022-11-20T07:56:06;98692.91;;;14.37;100.00
39793;BME280;26080;42.264;24.536;2022-11-20T07:58:31;98670.72;;;14.28;100.00
39793;BME280;26080;42.264;24.536;2022-11-20T08:01:08;98688.81;;;14.45;100.00
39793;BME280;26080;42.264;24.536;2022-11-20T08:03:33;98707.44;;;14.55;100.00
39793;BME280;26080;42.264;24.536;2022-11-20T08:05:59;98703.25;;;14.64;100.00
39793;BME280;26080;42.264;24.536;2022-11-20T08:08:28;98711.78;;;14.91;100.00
39793;BME280;26080;42.264;24.536;2022-11-20T08:10:54;98704.81;;;14.90;100.00
39793;BME280;26080;42.264;24.536;2022-11-20T08:13:39;98701.50;;;14.99;100.00
39793;BME280;26080;42.264;24.536;2022-11-20T08:16:23;98697.34;;;15.08;100.00
39793;BME280;26080;42.264;24.536;2022-11-20T08:18:48;98705.38;;;15.18;100.00
39793;BME280;26080;42.264;24.536;2022-11-20T08:21:15;98686.94;;;15.18;100.00
39793;BME280;26080;42.264;24.536;2022-11-20T08:23:40;98706.16;;;15.42;100.00
39793;BME280;26080;42.264;24.536;2022-11-20T08:26:05;98713.16;;;15.54;100.00
39793;BME280;26080;42.264;24.536;2022-11-20T08:28:31;98718.00;;;15.72;100.00
39793;BME280;26080;42.264;24.536;2022-11-20T08:31:00;98708.66;;;15.90;100.00
39793;BME280;26080;42.264;24.536;2022-11-20T08:33:26;98704.78;;;16.16;100.00
39793;BME280;26080;42.264;24.536;2022-11-20T08:35:52;98704.03;;;16.25;100.00
39793;BME280;26080;42.264;24.536;2022-11-20T08:38:17;98714.84;;;16.34;100.00
39793;BME280;26080;42.264;24.536;2022-11-20T08:40:43;98706.66;;;16.48;100.00
39793;BME280;26080;42.264;24.536;2022-11-20T08:43:31;98715.75;;;16.55;100.00
39793;BME280;26080;42.264;24.536;2022-11-20T08:45:57;98704.44;;;16.75;100.00
39793;BME280;26080;42.264;24.536;2022-11-20T08:48:22;98693.00;;;16.86;100.00
39793;BME280;26080;42.264;24.536;2022-11-20T08:50:48;98695.44;;;16.99;100.00
39793;BME280;26080;42.264;24.536;2022-11-20T08:53:13;98695.38;;;17.10;100.00
39793;BME280;26080;42.264;24.536;2022-11-20T08:55:39;98700.88;;;17.18;100.00
39793;BME280;26080;42.264;24.536;2022-11-20T08:58:06;98701.00;;;17.37;100.00
39793;BME280;26080;42.264;24.536;2022-11-20T09:00:33;98698.09;;;17.40;100.00
39793;BME280;26080;42.264;24.536;2022-11-20T09:02:58;98697.16;;;17.41;100.00
39793;BME280;26080;42.264;24.536;2022-11-20T09:05:26;98692.28;;;17.46;100.00
39793;BME280;26080;42.264;24.536;2022-11-20T09:07:51;98693.81;;;17.49;100.00
39793;BME280;26080;42.264;24.536;2022-11-20T09:10:17;98683.03;;;17.62;100.00
39793;BME280;26080;42.264;24.536;2022-11-20T09:12:42;98677.97;;;17.70;100.00
39793;BME280;26080;42.264;24.536;2022-11-20T09:15:08;98667.56;;;17.67;100.00
39793;BME280;26080;42.264;24.536;2022-11-20T09:17:33;98659.41;;;17.70;100.00
39793;BME280;26080;42.264;24.536;2022-11-20T09:19:58;98660.81;;;17.74;100.00
39793;BME280;26080;42.264;24.536;2022-11-20T09:22:24;98657.75;;;17.79;100.00
39793;BME280;26080;42.264;24.536;2022-11-20T09:24:49;98650.41;;;17.92;100.00
39793;BME280;26080;42.264;24.536;2022-11-20T09:27:15;98645.25;;;17.90;100.00
39793;BME280;26080;42.264;24.536;2022-11-20T09:29:45;98650.69;;;17.89;100.00
39793;BME280;26080;42.264;24.536;2022-11-20T09:32:11;98651.13;;;17.94;100.00
39793;BME280;26080;42.264;24.536;2022-11-20T09:34:36;98654.50;;;17.96;100.00
39793;BME280;26080;42.264;24.536;2022-11-20T09:37:02;98636.78;;;17.96;100.00
39793;BME280;26080;42.264;24.536;2022-11-20T09:39:27;98636.78;;;17.96;100.00
39793;BME280;26080;42.264;24.536;2022-11-20T09:42:08;98640.25;;;17.87;100.00
39793;BME280;26080;42.264;24.536;2022-11-20T09:44:52;98628.41;;;17.91;100.00
39793;BME280;26080;42.264;24.536;2022-11-20T09:53:04;98623.59;;;18.25;100.00
39793;BME280;26080;42.264;24.536;2022-11-20T09:55:36;98630.84;;;18.33;100.00
39793;BME280;26080;42.264;24.536;2022-11-20T09:58:06;98635.03;;;18.35;100.00
39793;BME280;26080;42.264;24.536;2022-11-20T10:00:31;98630.03;;;18.32;100.00
39793;BME280;26080;42.264;24.536;2022-11-20T10:03:04;98604.34;;;18.23;100.00
39793;BME280;26080;42.264;24.536;2022-11-20T10:05:41;98630.72;;;18.34;100.00
39793;BME280;26080;42.264;24.536;2022-11-20T10:10:46;98632.53;;;18.24;100.00
39793;BME280;26080;42.264;24.536;2022-11-20T10:29:34;98606.03;;;18.63;100.00
39793;BME280;26080;42.264;24.536;2022-11-20T10:32:03;98602.72;;;18.71;100.00
39793;BME280;26080;42.264;24.536;2022-11-20T10:36:59;98597.28;;;18.82;100.00
39793;BME280;26080;42.264;24.536;2022-11-20T10:39:51;98601.16;;;18.87;100.00
39793;BME280;26080;42.264;24.536;2022-11-20T10:42:36;98598.78;;;18.84;100.00
39793;BME280;26080;42.264;24.536;2022-11-20T10:47:58;98590.69;;;18.86;100.00
39793;BME280;26080;42.264;24.536;2022-11-20T10:50:35;98581.50;;;18.80;100.00
39793;BME280;26080;42.264;24.536;2022-11-20T10:53:05;98600.75;;;18.92;100.00
39793;BME280;26080;42.264;24.536;2022-11-20T10:56:00;98583.97;;;19.01;100.00
39793;BME280;26080;42.264;24.536;2022-11-20T11:01:15;98582.72;;;19.05;100.00
39793;BME280;26080;42.264;24.536;2022-11-20T11:03:41;98583.50;;;19.15;100.00
39793;BME280;26080;42.264;24.536;2022-11-20T11:06:16;98586.13;;;19.35;100.00
39793;BME280;26080;42.264;24.536;2022-11-20T11:08:44;98579.66;;;19.47;100.00
39793;BME280;26080;42.264;24.536;2022-11-20T11:11:20;98579.03;;;19.53;100.00
39793;BME280;26080;42.264;24.536;2022-11-20T11:13:47;98569.25;;;19.63;100.00
39793;BME280;26080;42.264;24.536;2022-11-20T11:16:26;98564.09;;;19.62;100.00
39793;BME280;26080;42.264;24.536;2022-11-20T11:19:03;98566.59;;;19.63;100.00
39793;BME280;26080;42.264;24.536;2022-11-20T11:21:29;98568.41;;;19.63;100.00
39793;BME280;26080;42.264;24.536;2022-11-20T11:23:59;98557.09;;;19.61;100.00
39793;BME280;26080;42.264;24.536;2022-11-20T11:26:26;98527.78;;;19.43;100.00
39793;BME280;26080;42.264;24.536;2022-11-20T11:29:00;98559.63;;;19.62;100.00
39793;BME280;26080;42.264;24.536;2022-11-20T11:31:28;98558.31;;;19.66;100.00
39793;BME280;26080;42.264;24.536;2022-11-20T11:34:14;98552.28;;;19.74;100.00
39793;BME280;26080;42.264;24.536;2022-11-20T11:36:40;98529.25;;;19.65;100.00
39793;BME280;26080;42.264;24.536;2022-11-20T11:39:12;98541.72;;;19.64;100.00
39793;BME280;26080;42.264;24.536;2022-11-20T11:41:40;98552.72;;;19.69;100.00
39793;BME280;26080;42.264;24.536;2022-11-20T11:44:24;98551.34;;;19.65;100.00
39793;BME280;26080;42.264;24.536;2022-11-20T11:47:23;98553.31;;;19.63;100.00
39793;BME280;26080;42.264;24.536;2022-11-20T11:49:49;98554.16;;;19.64;100.00
39793;BME280;26080;42.264;24.536;2022-11-20T11:52:25;98544.38;;;19.64;100.00
39793;BME280;26080;42.264;24.536;2022-11-20T11:54:58;98539.34;;;19.61;100.00
39793;BME280;26080;42.264;24.536;2022-11-20T11:57:29;98537.22;;;19.65;100.00
39793;BME280;26080;42.264;24.536;2022-11-20T12:00:21;98539.44;;;19.69;100.00
39793;BME280;26080;42.264;24.536;2022-11-20T12:07:55;98517.81;;;19.82;100.00
39793;BME280;26080;42.264;24.536;2022-11-20T12:13:28;98534.34;;;20.03;100.00
39793;BME280;26080;42.264;24.536;2022-11-20T12:15:56;98537.66;;;19.88;100.00
39793;BME280;26080;42.264;24.536;2022-11-20T12:18:22;98547.31;;;20.06;100.00
39793;BME280;26080;42.264;24.536;2022-11-20T12:23:54;98537.16;;;20.20;100.00
39793;BME280;26080;42.264;24.536;2022-11-20T12:29:16;98542.22;;;20.13;100.00
39793;BME280;26080;42.264;24.536;2022-11-20T12:32:19;98534.56;;;20.10;100.00
39793;BME280;26080;42.264;24.536;2022-11-20T12:34:41;98524.44;;;19.96;100.00
39793;BME280;26080;42.264;24.536;2022-11-20T12:39:49;98532.28;;;20.15;100.00
39793;BME280;26080;42.264;24.536;2022-11-20T12:48:42;98522.16;;;20.01;100.00
39793;BME280;26080;42.264;24.536;2022-11-20T12:57:03;98523.59;;;19.77;100.00
39793;BME280;26080;42.264;24.536;2022-11-20T13:02:37;98534.72;;;19.53;100.00
39793;BME280;26080;42.264;24.536;2022-11-20T13:08:00;98541.97;;;19.34;100.00
39793;BME280;26080;42.264;24.536;2022-11-20T13:10:38;98545.19;;;19.28;100.00
39793;BME280;26080;42.264;24.536;2022-11-20T13:13:19;98545.66;;;19.13;100.00
39793;BME280;26080;42.264;24.536;2022-11-20T13:18:20;98551.28;;;19.01;100.00
39793;BME280;26080;42.264;24.536;2022-11-20T13:20:45;98561.13;;;18.81;100.00
39793;BME280;26080;42.264;24.536;2022-11-20T13:23:23;98568.66;;;18.66;100.00
39793;BME280;26080;42.264;24.536;2022-11-20T13:25:49;98573.28;;;18.64;100.00
39793;BME280;26080;42.264;24.536;2022-11-20T13:30:54;98580.50;;;18.52;100.00
39793;BME280;26080;42.264;24.536;2022-11-20T13:33:34;98578.94;;;18.50;100.00
39793;BME280;26080;42.264;24.536;2022-11-20T13:36:01;98592.91;;;18.61;100.00
39793;BME280;26080;42.264;24.536;2022-11-20T13:38:28;98607.63;;;18.66;100.00
39793;BME280;26080;42.264;24.536;2022-11-20T13:41:07;98620.41;;;18.60;100.00
39793;BME280;26080;42.264;24.536;2022-11-20T13:43:52;98638.00;;;18.42;100.00
39793;BME280;26080;42.264;24.536;2022-11-20T13:46:17;98653.72;;;18.15;100.00
39793;BME280;26080;42.264;24.536;2022-11-20T13:48:49;98676.69;;;17.53;100.00
39793;BME280;26080;42.264;24.536;2022-11-20T13:51:37;98657.91;;;17.05;100.00
39793;BME280;26080;42.264;24.536;2022-11-20T14:00:23;98639.63;;;16.49;100.00
39793;BME280;26080;42.264;24.536;2022-11-20T14:05:55;98614.94;;;16.16;100.00
39793;BME280;26080;42.264;24.536;2022-11-20T14:11:15;98570.66;;;15.77;100.00
39793;BME280;26080;42.264;24.536;2022-11-20T14:16:25;98580.59;;;15.84;100.00
39793;BME280;26080;42.264;24.536;2022-11-20T14:18:51;98583.84;;;15.77;100.00
39793;BME280;26080;42.264;24.536;2022-11-20T14:21:35;98571.59;;;15.76;100.00
39793;BME280;26080;42.264;24.536;2022-11-20T14:24:04;98558.50;;;15.74;100.00